Data for 09/20/2010

Time Sea-Level Adjusted Pressure Absolute Pressure Temperature Relative Humidity Dew Point   
(mb) (inHg) (mb) (inHg) (C) (F) (%) (C) (F)
00:05 1009 29.8 839 24.78 14.3 57.8 54 5.2 41.3
00:10 1009 29.8 839 24.78 14.4 57.8 54 5.3 41.5
00:15 1009 29.8 838 24.75 14.1 57.4 56 5.4 41.8
00:20 1009 29.8 838 24.75 13.8 56.8 57 5.4 41.7
00:25 1009 29.8 838 24.75 13.6 56.4 57 5.2 41.4
00:30 1009 29.8 838 24.75 13.8 56.8 55 5 41
00:35 1009 29.8 838 24.75 14 57.2 55 5.3 41.5
00:40 1009 29.8 839 24.78 13.6 56.5 56 5 41
00:45 1009 29.8 839 24.78 13.7 56.7 54 4.7 40.5
00:50 1009 29.8 839 24.78 14 57.2 54 4.8 40.6
00:55 1009 29.8 839 24.78 14 57.2 53 4.6 40.3
01:00 1009 29.8 839 24.78 14.2 57.5 52 4.5 40.1
01:05 1009 29.8 839 24.78 14.4 57.8 51 4.5 40.1
01:10 1009 29.8 838 24.75 14.3 57.7 52 4.7 40.5
01:15 1009 29.8 839 24.78 13.8 56.9 54 4.6 40.3
01:20 1009 29.8 839 24.78 13.5 56.3 55 4.7 40.5
01:25 1010 29.83 839 24.78 13.1 55.6 57 4.8 40.6
01:30 1010 29.83 839 24.78 12.9 55.2 56 4.4 39.9
01:35 1010 29.83 839 24.78 12.8 55 56 4.3 39.8
01:40 1010 29.83 839 24.78 12.7 54.8 56 4.1 39.4
01:45 1010 29.83 839 24.78 12.6 54.7 57 4.3 39.8
01:50 1010 29.83 839 24.78 12.6 54.7 56 4 39.2
01:55 1010 29.83 839 24.78 12.7 54.9 57 4.6 40.2
02:00 1010 29.83 839 24.78 12.3 54.1 59 4.5 40.1
02:05 1010 29.83 839 24.78 12.2 53.9 59 4.3 39.8
02:10 1010 29.83 839 24.78 12.1 53.7 60 4.5 40.2
02:15 1010 29.83 839 24.78 12 53.6 59 4.2 39.6
02:20 1010 29.83 839 24.78 12.1 53.8 58 4.2 39.6
02:25 1010 29.83 839 24.78 12 53.5 60 4.4 39.9
02:30 1010 29.83 839 24.78 11.6 52.9 62 4.6 40.2
02:35 1010 29.83 839 24.78 11.6 52.8 59 3.9 38.9
02:40 1010 29.83 839 24.78 12 53.5 59 4.2 39.5
02:45 1010 29.83 839 24.78 12.2 54 58 4.3 39.8
02:50 1010 29.83 839 24.78 12.2 54 57 4 39.1
02:55 1010 29.83 840 24.81 12.3 54.1 59 4.6 40.2
03:00 1010 29.83 840 24.81 11.9 53.4 59 4.3 39.7
03:05 1011 29.85 840 24.81 12.1 53.7 57 3.8 38.8
03:10 1011 29.85 840 24.81 12.4 54.4 57 4.2 39.6
03:15 1011 29.85 840 24.81 12.5 54.6 52 3 37.4
03:20 1011 29.85 840 24.81 12.8 55.1 52 3.4 38
03:25 1011 29.85 840 24.81 13.2 55.7 52 3.5 38.3
03:30 1011 29.85 840 24.81 12.9 55.2 57 4.6 40.2
03:35 1011 29.85 841 24.83 12.6 54.6 58 4.6 40.2
03:40 1012 29.88 841 24.83 12.4 54.4 59 4.7 40.5
03:45 1012 29.88 841 24.83 12.7 54.8 53 3.3 38
03:50 1012 29.88 841 24.83 13.4 56.1 47 2.5 36.5
03:55 1012 29.88 841 24.83 13.8 56.8 47 2.7 36.8
04:00 1012 29.88 842 24.86 13.8 56.8 46 2.5 36.4
04:05 1012 29.88 841 24.83 13.9 56.9 45 2.3 36.1
04:10 1012 29.88 841 24.83 13.9 56.9 46 2.5 36.5
04:15 1012 29.88 841 24.83 13.8 56.8 47 2.8 37
04:20 1012 29.88 841 24.83 13.6 56.4 50 3.3 38
04:25 1011 29.85 840 24.81 12.8 55.1 56 4.3 39.7
04:30 1011 29.85 840 24.81 12.3 54.2 58 4.3 39.8
04:35 1011 29.85 840 24.81 12.1 53.8 58 4.2 39.6
04:40 1011 29.85 840 24.81 12.1 53.8 58 4.1 39.5
04:45 1011 29.85 840 24.81 12.1 53.7 58 4.2 39.5
04:50 1011 29.85 840 24.81 12 53.6 58 4 39.1
04:55 1011 29.85 840 24.81 11.8 53.3 57 3.7 38.6
05:00 1011 29.85 840 24.81 11.8 53.3 58 3.9 39.1
05:05 1011 29.85 840 24.81 11.8 53.3 56 3.3 38
05:10 1011 29.85 841 24.83 12 53.5 55 3.2 37.7
05:15 1011 29.85 840 24.81 11.9 53.4 56 3.6 38.4
05:20 1011 29.85 840 24.81 11.3 52.4 59 3.6 38.4
05:25 1011 29.85 841 24.83 10.9 51.7 59 3.2 37.8
05:30 1011 29.85 841 24.83 10.9 51.7 59 3.3 37.9
05:35 1011 29.85 841 24.83 10.6 51 60 3.2 37.8
05:40 1012 29.88 841 24.83 10.7 51.2 59 2.9 37.2
05:45 1012 29.88 841 24.83 11.1 52 58 3.3 38
05:50 1012 29.88 841 24.83 11.1 52.1 59 3.4 38.1
05:55 1012 29.88 841 24.83 10.8 51.5 62 4 39.1
06:00 1012 29.88 841 24.83 10.1 50.3 63 3.5 38.2
06:05 1012 29.88 841 24.83 10.3 50.5 62 3.5 38.2
06:10 1012 29.88 841 24.83 10.2 50.4 64 3.8 38.8
06:15 1012 29.88 841 24.83 10 50 64 3.5 38.4
06:20 1012 29.88 841 24.83 9.9 49.9 65 3.7 38.7
06:25 1012 29.88 841 24.83 10.1 50.3 63 3.6 38.4
06:30 1012 29.88 841 24.83 10.4 50.6 63 3.7 38.6
06:35 1012 29.88 841 24.83 10.7 51.2 61 3.5 38.2
06:40 1012 29.88 841 24.83 10.9 51.6 61 3.8 38.8
06:45 1012 29.88 841 24.83 11.1 51.9 58 3.2 37.7
06:50 1012 29.88 841 24.83 11.5 52.8 55 2.9 37.3
06:55 1012 29.88 841 24.83 12 53.6 52 2.5 36.5
07:00 1012 29.88 841 24.83 12.5 54.5 51 2.7 36.9
07:05 1012 29.88 841 24.83 12.5 54.6 51 2.7 36.8
07:10 1012 29.88 841 24.83 12.4 54.3 54 3.4 38.1
07:15 1012 29.88 842 24.86 12 53.6 57 3.8 38.8
07:20 1012 29.88 842 24.86 11.5 52.6 57 3.3 37.9
07:25 1012 29.88 842 24.86 11.4 52.5 57 3.1 37.7
07:30 1013 29.91 842 24.86 11.3 52.4 58 3.3 38
07:35 1013 29.91 842 24.86 11.2 52.1 58 3.3 37.9
07:40 1013 29.91 842 24.86 11 51.8 59 3.4 38.2
07:45 1013 29.91 842 24.86 10.9 51.7 60 3.5 38.4
07:50 1013 29.91 842 24.86 11.1 52 59 3.5 38.3
07:55 1013 29.91 842 24.86 11.6 52.9 58 3.7 38.7
08:00 1013 29.91 842 24.86 11.8 53.3 57 3.7 38.7
08:05 1013 29.91 842 24.86 12.3 54.2 55 3.6 38.5
08:10 1013 29.91 842 24.86 12.6 54.8 54 3.7 38.6
08:15 1013 29.91 842 24.86 13.1 55.6 53 3.7 38.7
08:20 1013 29.91 842 24.86 13.3 56 54 4.2 39.5
08:25 1013 29.91 842 24.86 12.7 54.9 57 4.4 39.9
08:30 1013 29.91 842 24.86 12.4 54.3 56 4 39.3
08:35 1013 29.91 842 24.86 12.7 54.8 57 4.3 39.8
08:40 1013 29.91 842 24.86 13.5 56.2 53 4.2 39.5
08:45 1013 29.91 842 24.86 14 57.2 52 4.4 39.9
08:50 1013 29.91 842 24.86 14 57.1 52 4.5 40
08:55 1013 29.91 843 24.89 13.3 56 55 4.5 40
09:00 1013 29.91 843 24.89 12.9 55.2 57 4.7 40.4
09:05 1013 29.91 843 24.89 12.6 54.8 56 4.2 39.5
09:10 1013 29.91 843 24.89 12.4 54.4 57 4.3 39.7
09:15 1014 29.94 843 24.89 12.4 54.3 57 4.3 39.7
09:20 1014 29.94 843 24.89 12.2 53.9 59 4.5 40.2
09:25 1014 29.94 843 24.89 11.8 53.3 60 4.4 39.9
09:30 1014 29.94 843 24.89 11.9 53.4 60 4.4 39.8
09:35 1014 29.94 843 24.89 11.7 53.1 60 4.3 39.7
09:40 1014 29.94 843 24.89 11.6 52.8 60 4.1 39.4
09:45 1014 29.94 843 24.89 11.4 52.6 61 4.1 39.4
09:50 1014 29.94 843 24.89 12.3 54.1 56 4 39.1
09:55 1014 29.94 843 24.89 12.6 54.6 56 4 39.2
10:00 1014 29.94 843 24.89 12.4 54.4 56 4 39.2
10:05 1014 29.94 843 24.89 12.3 54.1 56 3.8 38.8
10:10 1014 29.94 843 24.89 12.8 55 53 3.4 38.2
10:15 1014 29.94 843 24.89 13.7 56.7 48 3.1 37.6
10:20 1014 29.94 843 24.89 14.1 57.4 50 3.9 38.9
10:25 1014 29.94 843 24.89 14.3 57.7 47 3.3 37.9
10:30 1014 29.94 843 24.89 14.5 58.1 48 3.7 38.6
10:35 1014 29.94 843 24.89 14.9 58.9 47 3.8 38.8
10:40 1014 29.94 843 24.89 15.5 59.8 46 4.1 39.5
10:45 1014 29.94 843 24.89 15.3 59.5 46 3.9 39.1
10:50 1014 29.94 844 24.92 15 58.9 47 3.8 38.8
10:55 1014 29.94 844 24.92 15.3 59.5 47 4 39.1
11:00 1014 29.94 844 24.92 15 59.1 46 3.7 38.6
11:05 1014 29.94 844 24.92 14.5 58.1 47 3.4 38.2
11:10 1014 29.94 844 24.92 14.3 57.8 48 3.4 38.1
11:15 1014 29.94 844 24.92 14 57.1 48 3.1 37.6
11:20 1014 29.94 844 24.92 14.2 57.5 47 3 37.4
11:25 1014 29.94 844 24.92 14.5 58.1 45 2.9 37.2
11:30 1014 29.94 844 24.92 14.4 58 46 2.9 37.3
11:35 1015 29.97 844 24.92 14.5 58.2 46 3.3 37.9
11:40 1014 29.94 844 24.92 14.3 57.7 45 2.6 36.8
11:45 1014 29.94 844 24.92 14.6 58.4 42 2.1 35.7
11:50 1014 29.94 844 24.92 15.2 59.4 41 2.2 36
11:55 1014 29.94 844 24.92 14.7 58.5 42 2 35.5
12:00 1014 29.94 844 24.92 14.9 58.8 41 2 35.6
12:05 1014 29.94 844 24.92 14.6 58.3 42 2 35.5
12:10 1014 29.94 844 24.92 15 59 40 1.7 35
12:15 1014 29.94 844 24.92 15 59 41 2 35.6
12:20 1014 29.94 844 24.92 15 59.1 41 2.1 35.7
12:25 1014 29.94 844 24.92 14.6 58.2 42 2 35.7
12:30 1014 29.94 844 24.92 14.5 58.1 41 1.7 35
12:35 1014 29.94 844 24.92 14.9 58.8 42 2.1 35.8
12:40 1014 29.94 844 24.92 15.2 59.4 40 1.7 35.1
12:45 1014 29.94 844 24.92 15.1 59.1 40 1.6 34.9
12:50 1014 29.94 844 24.92 14.9 58.8 41 1.8 35.3
12:55 1014 29.94 844 24.92 14.7 58.4 40 1.2 34.2
13:00 1014 29.94 844 24.92 14.6 58.2 41 1.4 34.6
13:05 1015 29.97 844 24.92 14.6 58.4 42 1.9 35.4
13:10 1014 29.94 844 24.92 14.9 58.8 40 1.4 34.4
13:15 1014 29.94 844 24.92 15 59 38 0.8 33.5
13:20 1014 29.94 844 24.92 15 59 39 1.1 34
13:25 1015 29.97 844 24.92 15 59 36 0.2 32.4
13:30 1015 29.97 844 24.92 15.1 59.1 37 0.5 32.8
13:35 1015 29.97 844 24.92 15.1 59.1 37 0.5 33
13:40 1015 29.97 844 24.92 15.1 59.2 37 0.5 32.9
13:45 1015 29.97 844 24.92 15.2 59.4 37 0.9 33.6
13:50 1015 29.97 844 24.92 15.4 59.8 37 0.9 33.6
13:55 1015 29.97 844 24.92 15.4 59.7 44 3.2 37.8
14:00 1015 29.97 844 24.92 15.2 59.3 39 1.3 34.4
14:05 1015 29.97 844 24.92 14.9 58.8 48 4.1 39.4
14:10 1015 29.97 844 24.92 14.1 57.5 49 3.7 38.7
14:15 1015 29.97 844 24.92 14.1 57.4 49 3.6 38.6
14:20 1015 29.97 844 24.92 14.3 57.8 46 2.9 37.2
14:25 1015 29.97 844 24.92 14.5 58.1 49 3.9 39.1
14:30 1015 29.97 844 24.92 14.6 58.2 48 3.8 38.8
14:35 1015 29.97 844 24.92 14.8 58.7 45 3.2 37.7
14:40 1014 29.94 844 24.92 15.1 59.1 42 2.2 36
14:45 1014 29.94 844 24.92 15.8 60.4 40 2.5 36.4
14:50 1014 29.94 844 24.92 16.8 62.3 34 0.9 33.7
14:55 1014 29.94 844 24.92 16.6 61.8 34 0.7 33.3
15:00 1014 29.94 844 24.92 16.8 62.3 33 0.6 33.1
15:05 1014 29.94 843 24.89 17.3 63.1 33 0.8 33.4
15:10 1014 29.94 843 24.89 17.5 63.6 32 0.8 33.4
15:15 1014 29.94 843 24.89 17.1 62.8 32 0.5 32.9
15:20 1014 29.94 843 24.89 16.9 62.3 33 0.5 32.9
15:25 1014 29.94 843 24.89 16.9 62.4 32 0.1 32.2
15:30 1014 29.94 843 24.89 17.5 63.5 30 -0.2 31.6
15:35 1014 29.94 843 24.89 17.7 63.9 29 -0.4 31.2
15:40 1014 29.94 843 24.89 17.8 64 30 0 32
15:45 1014 29.94 843 24.89 17.6 63.7 30 0.1 32.1
15:50 1014 29.94 843 24.89 17.4 63.2 31 0 32.1
15:55 1014 29.94 843 24.89 17.2 63 31 0.1 32.2
16:00 1014 29.94 843 24.89 17.2 63 30 -0.5 31
16:05 1014 29.94 843 24.89 17.6 63.8 29 -0.6 31
16:10 1014 29.94 843 24.89 18.1 64.5 29 -0.2 31.6
16:15 1014 29.94 843 24.89 18.5 65.3 28 -0.1 31.7
16:20 1014 29.94 843 24.89 18.4 65.1 28 -0.3 31.4
16:25 1014 29.94 843 24.89 18.3 65 28 -0.2 31.7
16:30 1014 29.94 843 24.89 17.8 64 28 -0.9 30.4
16:35 1014 29.94 843 24.89 18.1 64.6 27 -0.9 30.3
16:40 1014 29.94 843 24.89 18.5 65.3 28 -0.4 31.4
16:45 1013 29.91 843 24.89 18 64.4 28 -0.4 31.3
16:50 1013 29.91 843 24.89 18.2 64.7 28 -0.7 30.8
16:55 1013 29.91 843 24.89 17.9 64.3 28 -0.9 30.4
17:00 1013 29.91 843 24.89 18.2 64.7 28 -0.4 31.2
17:05 1013 29.91 843 24.89 18.1 64.6 29 -0.3 31.5
17:10 1013 29.91 843 24.89 18.1 64.6 28 -0.6 31
17:15 1013 29.91 842 24.86 18.2 64.8 29 -0 31.9
17:20 1013 29.91 842 24.86 18.2 64.7 29 -0.1 31.8
17:25 1013 29.91 842 24.86 18.3 64.9 29 -0.1 31.9
17:30 1013 29.91 842 24.86 17.8 64.1 29 -0.3 31.5
17:35 1013 29.91 842 24.86 17.8 64 28 -0.9 30.4
17:40 1013 29.91 842 24.86 17.7 63.9 29 -0.2 31.6
17:45 1013 29.91 842 24.86 17.7 63.8 30 -0 31.9
17:50 1013 29.91 842 24.86 17.7 63.8 31 0.7 33.2
17:55 1013 29.91 842 24.86 17.5 63.6 32 0.9 33.6
18:00 1013 29.91 842 24.86 17.1 62.8 33 0.9 33.6
18:05 1013 29.91 842 24.86 16.9 62.4 35 1.5 34.7
18:10 1013 29.91 842 24.86 17 62.5 35 1.6 34.9
18:15 1013 29.91 842 24.86 16.7 62.1 36 1.6 34.9
18:20 1013 29.91 842 24.86 16.4 61.6 35 1.1 34
18:25 1013 29.91 842 24.86 16.3 61.4 36 1.3 34.4
18:30 1013 29.91 842 24.86 16.1 60.9 37 1.4 34.5
18:35 1013 29.91 842 24.86 15.8 60.4 38 1.4 34.6
18:40 1013 29.91 842 24.86 15.7 60.2 37 1.3 34.3
18:45 1013 29.91 842 24.86 15.5 60 36 0.8 33.4
18:50 1013 29.91 842 24.86 15.4 59.8 38 1.3 34.3
18:55 1013 29.91 842 24.86 15.3 59.5 39 1.5 34.8
19:00 1013 29.91 842 24.86 15.1 59.1 40 1.7 35.1
19:05 1013 29.91 843 24.89 14.9 58.8 41 1.7 35.1
19:10 1013 29.91 843 24.89 14.7 58.4 42 1.9 35.4
19:15 1013 29.91 843 24.89 14.6 58.2 42 1.7 35.1
19:20 1013 29.91 843 24.89 14.5 58.2 41 1.6 34.8
19:25 1013 29.91 843 24.89 14.5 58 43 2 35.6
19:30 1013 29.91 843 24.89 13.9 57.1 46 2.7 36.8
19:35 1013 29.91 843 24.89 13.6 56.5 46 2.2 35.9
19:40 1013 29.91 843 24.89 13.6 56.4 50 3.4 38.1
19:45 1014 29.94 843 24.89 12.8 55.1 53 3.5 38.3
19:50 1014 29.94 843 24.89 12.5 54.5 55 3.7 38.7
19:55 1014 29.94 843 24.89 12 53.7 57 3.8 38.8
20:00 1014 29.94 843 24.89 11.7 53.1 58 3.7 38.7
20:05 1014 29.94 843 24.89 11.7 53 58 3.7 38.6
20:10 1014 29.94 843 24.89 11.5 52.7 58 3.6 38.6
20:15 1014 29.94 843 24.89 11.4 52.5 59 3.6 38.5
20:20 1014 29.94 843 24.89 11.3 52.3 58 3.5 38.2
20:25 1014 29.94 843 24.89 11.3 52.3 58 3.3 38
20:30 1014 29.94 843 24.89 11.3 52.4 57 3.2 37.8
20:35 1014 29.94 843 24.89 11.3 52.3 58 3.3 37.9
20:40 1014 29.94 843 24.89 11.1 52 58 3.2 37.8
20:45 1014 29.94 843 24.89 11 51.8 58 3 37.4
20:50 1014 29.94 843 24.89 11.1 51.9 58 3.1 37.5
20:55 1014 29.94 843 24.89 11 51.8 58 3 37.5
21:00 1014 29.94 843 24.89 11.1 51.9 57 3 37.4
21:05 1014 29.94 843 24.89 11.2 52.2 58 3.3 37.9
21:10 1014 29.94 843 24.89 11 51.7 60 3.4 38.2
21:15 1014 29.94 843 24.89 10.6 51 62 3.5 38.4
21:20 1014 29.94 843 24.89 10.1 50.2 62 3.2 37.8
21:25 1014 29.94 843 24.89 10.1 50.2 59 2.5 36.5
21:30 1014 29.94 843 24.89 10.3 50.6 61 3.1 37.6
21:35 1014 29.94 843 24.89 9.9 49.9 61 2.8 37.1
21:40 1014 29.94 843 24.89 9.9 49.7 61 2.6 36.8
21:45 1014 29.94 843 24.89 10.1 50.2 59 2.6 36.6
21:50 1014 29.94 843 24.89 10.2 50.3 60 2.7 36.9
21:55 1014 29.94 843 24.89 10.2 50.3 58 2.3 36.2
22:00 1014 29.94 843 24.89 10.2 50.3 57 2 35.6
22:05 1014 29.94 843 24.89 10.3 50.5 59 2.7 36.9
22:10 1014 29.94 843 24.89 10.1 50.1 61 2.8 37.1
22:15 1014 29.94 843 24.89 9.9 49.8 61 2.8 37
22:20 1014 29.94 843 24.89 9.9 49.8 61 2.8 37
22:25 1014 29.94 843 24.89 9.9 49.8 61 2.8 37.1
22:30 1014 29.94 843 24.89 9.8 49.6 61 2.8 37
22:35 1014 29.94 843 24.89 9.9 49.7 60 2.6 36.6
22:40 1014 29.94 843 24.89 9.9 49.7 61 2.8 37
22:45 1014 29.94 843 24.89 9.8 49.7 60 2.5 36.6
22:50 1014 29.94 843 24.89 9.7 49.5 62 2.8 37.1
22:55 1014 29.94 843 24.89 9.6 49.3 62 2.6 36.7
23:00 1014 29.94 843 24.89 9.6 49.3 62 2.7 36.9
23:05 1014 29.94 843 24.89 9.5 49.1 61 2.5 36.4
23:10 1014 29.94 843 24.89 9.6 49.2 62 2.7 36.9
23:15 1014 29.94 843 24.89 9.4 49 63 2.7 36.9
23:20 1014 29.94 844 24.92 9.4 48.9 63 2.7 36.8
23:25 1014 29.94 844 24.92 9.5 49 62 2.6 36.7
23:30 1014 29.94 844 24.92 9.5 49.1 61 2.3 36.1
23:35 1014 29.94 844 24.92 9.6 49.2 60 2.3 36.2
23:40 1014 29.94 844 24.92 9.8 49.6 60 2.5 36.4
23:45 1014 29.94 844 24.92 9.9 49.8 60 2.5 36.5
23:50 1014 29.94 843 24.89 9.8 49.6 61 2.6 36.6
23:55 1014 29.94 844 24.92 9.5 49.1 62 2.5 36.5
24:00 1014 29.94 844 24.92 9.4 48.9 62 2.5 36.5